Aeroporto :
LOGIN :

Iscrizione | Disclaimer

   EN    FR    IT 

 










Sommario :    VFR   VFR Marginale   IFR   IFR Intensivo   IFR Molto Intensivo
Visibilità : 
Base nubi : 
>= 8 km
>= 3000ft
5 / 8 km
1000 / 3000 ft
1500m / 5 km
500 / 1000 ft
800 / 1500m
200 / 500 ft
< 800m
< 200 ft
Simboli :   Temporali  Nebbia  Neve Forte  Precipitazioni Forti  Vento > 20 kt
SIGMETs :   Varie  Temporali  Ghiacco  Turbolenza  Onda orograficha  Ceneri Vulcaniche






- Altitudine del aeroporto : 405 ft
- Codice IATA : ODH


EGVO - RAF Odiham

ULTIMO METAR :
  • 240550Z AUTO 21016KT 5000 BR BKN003/// 10/10 Q1013 REDZ

METARs OBSOLETI :
  • 240450Z AUTO 16011KT 7000 -DZ BKN008/// 07/07 Q1015
  • 240350Z AUTO 15012KT 4900 -DZ FEW003/// BKN011/// 06/06 Q1017

TAF TAF EGVO
Valido dal 24 a 06 ore il 24 a 18 ore UTC


240446Z 2406/2418 21016G26KT 9999 BKN008
TEMPO 2406/2411 5000 -DZ
PROB40
TEMPO 2406/2408 3000 DZ SCT004
PROB40
TEMPO 2407/2416 22026G36KT
PROB40
TEMPO 2411/2414 4000 RADZ
PROB30
TEMPO 2414/2417 5000 -DZ SCT006
BECMG 2415/2418 24016G26KT FEW015



MetMap, La meteo Aeronautica in un colpo d'occhio ! - Copyright ORBIFLY Dicembre 2007 - Disclaimer

ORBIFLY MET'MAP TEAM :

Programmazione e sviluppo : Alexandra Zaïnal
Concezione : Baudouin d'Aumeries
Aiuto per la programmazione : Marc-Olivier Méhu
Supporto tecnico e logistico : Manuel Goepfert
Aiuto per la traduzione : Arnaldo La Scala

Contatto : metmap@orbifly.com




FONTI E CREDITI :

   NOAA